createdAt,value
2022-11-29T00:00:15.515Z,35.00
2022-11-29T00:04:43.775Z,32.90
2022-11-29T00:08:52.257Z,34.80
2022-11-29T00:12:59.879Z,35.80
2022-11-29T00:17:07.833Z,31.10
2022-11-29T00:21:15.267Z,33.80
2022-11-29T00:25:23.237Z,42.10
2022-11-29T00:29:32.291Z,35.20
2022-11-29T00:33:39.961Z,31.10
2022-11-29T00:37:47.461Z,30.40
2022-11-29T00:41:55.791Z,29.20
2022-11-29T00:46:03.793Z,32.10
2022-11-29T00:50:12.922Z,32.70
2022-11-29T00:54:20.626Z,37.70
2022-11-29T00:58:28.337Z,36.50
2022-11-29T01:02:36.050Z,33.70
2022-11-29T01:06:44.325Z,36.50
2022-11-29T01:10:52.021Z,32.30
2022-11-29T01:15:00.879Z,31.10
2022-11-29T01:19:11.471Z,30.70
2022-11-29T01:23:18.870Z,37.20
2022-11-29T01:27:26.329Z,39.50
2022-11-29T01:31:36.649Z,33.70
2022-11-29T01:35:50.218Z,32.80
2022-11-29T01:39:57.851Z,29.30
2022-11-29T01:44:08.261Z,30.10
2022-11-29T01:48:17.618Z,36.60
2022-11-29T01:52:27.853Z,36.00
2022-11-29T01:56:36.587Z,32.90
2022-11-29T02:00:43.885Z,31.60
2022-11-29T02:04:52.827Z,30.70
2022-11-29T02:09:01.512Z,30.60
2022-11-29T02:13:14.816Z,31.30
2022-11-29T02:17:29.865Z,28.50
2022-11-29T02:21:44.061Z,37.20
2022-11-29T02:26:03.941Z,39.70
2022-11-29T02:30:35.867Z,35.80
2022-11-29T02:34:55.074Z,31.30
2022-11-29T02:39:35.726Z,32.30
2022-11-29T02:44:10.551Z,31.90
2022-11-29T02:48:34.690Z,31.90
2022-11-29T02:52:49.877Z,32.00
2022-11-29T02:57:00.476Z,35.50
2022-11-29T03:01:16.848Z,34.60
2022-11-29T03:05:30.465Z,36.00
2022-11-29T03:09:44.187Z,33.30
2022-11-29T03:13:58.388Z,34.10
2022-11-29T03:18:17.197Z,32.00
2022-11-29T03:22:36.550Z,30.00
2022-11-29T03:26:47.966Z,33.40
2022-11-29T03:31:00.131Z,39.20
2022-11-29T03:35:12.012Z,40.50
2022-11-29T03:39:26.557Z,35.10
2022-11-29T03:43:41.366Z,35.90
2022-11-29T03:47:58.033Z,35.50
2022-11-29T03:52:10.037Z,33.50
2022-11-29T03:56:32.284Z,32.60
2022-11-29T04:00:57.525Z,34.40
2022-11-29T04:05:32.974Z,37.00
2022-11-29T04:09:57.954Z,38.90
2022-11-29T04:14:35.129Z,36.70
2022-11-29T04:23:55.772Z,34.50
2022-11-29T04:28:16.827Z,34.60
2022-11-29T04:32:40.471Z,33.30
2022-11-29T04:37:02.593Z,36.10
2022-11-29T04:41:21.850Z,35.90
2022-11-29T04:45:58.900Z,34.80
2022-11-29T04:50:18.598Z,32.40
2022-11-29T04:54:32.501Z,33.90
2022-11-29T04:58:42.798Z,31.90
2022-11-29T05:02:55.953Z,31.30
2022-11-29T05:07:07.637Z,36.90
2022-11-29T05:11:26.472Z,42.20
2022-11-29T05:15:56.632Z,37.00
2022-11-29T05:20:23.965Z,33.10
2022-11-29T05:24:43.176Z,29.50
2022-11-29T05:28:56.094Z,31.90
2022-11-29T05:33:11.787Z,32.50
2022-11-29T05:37:28.401Z,26.40
2022-11-29T05:41:47.757Z,41.40
2022-11-29T05:46:01.538Z,36.70
2022-11-29T05:50:16.306Z,28.40
2022-11-29T05:54:29.858Z,27.00
2022-11-29T05:58:48.005Z,30.10
2022-11-29T06:03:00.815Z,32.00
2022-11-29T06:07:13.011Z,40.30
2022-11-29T06:11:25.228Z,43.50
2022-11-29T06:15:48.843Z,47.90
2022-11-29T06:20:09.294Z,36.30
2022-11-29T06:24:27.344Z,28.60
2022-11-29T06:28:43.764Z,27.10
2022-11-29T06:32:56.498Z,26.00
2022-11-29T06:37:10.173Z,33.20
2022-11-29T06:41:22.519Z,29.60
2022-11-29T06:45:31.231Z,25.50
2022-11-29T06:49:43.704Z,25.60
2022-11-29T06:53:55.490Z,24.60
2022-11-29T06:58:11.397Z,24.10
2022-11-29T07:02:33.681Z,29.30
2022-11-29T07:06:43.122Z,29.60
2022-11-29T07:10:54.244Z,29.30
2022-11-29T07:15:03.198Z,24.70
2022-11-29T07:19:16.932Z,30.60
2022-11-29T07:23:32.686Z,30.50
2022-11-29T07:27:54.899Z,26.40
2022-11-29T07:32:09.301Z,23.00
2022-11-29T07:36:20.211Z,29.70
2022-11-29T07:40:37.334Z,30.40
2022-11-29T07:44:52.325Z,22.20
2022-11-29T07:49:00.492Z,25.60
2022-11-29T07:53:08.432Z,27.10
2022-11-29T07:57:16.151Z,27.60
2022-11-29T08:01:23.548Z,26.50
2022-11-29T08:05:31.309Z,30.90
2022-11-29T08:09:38.998Z,31.30
2022-11-29T08:13:46.866Z,28.50
2022-11-29T08:17:55.607Z,29.20
2022-11-29T08:22:03.955Z,25.40
2022-11-29T08:26:12.845Z,28.00
2022-11-29T08:30:22.517Z,26.70
2022-11-29T08:34:29.999Z,24.20
2022-11-29T08:38:37.574Z,32.80
2022-11-29T08:42:45.553Z,28.00
2022-11-29T08:47:10.782Z,28.40
2022-11-29T08:51:18.667Z,24.50
2022-11-29T08:55:27.789Z,26.10
2022-11-29T08:59:35.338Z,24.40
2022-11-29T09:04:02.916Z,22.20
2022-11-29T09:08:10.771Z,24.60
2022-11-29T09:12:18.324Z,29.30
2022-11-29T09:16:27.882Z,29.00
2022-11-29T09:20:35.418Z,29.80
2022-11-29T09:24:43.127Z,28.20
2022-11-29T09:28:52.483Z,27.90
2022-11-29T09:33:00.720Z,24.90
2022-11-29T09:37:09.439Z,26.90
2022-11-29T09:41:41.968Z,30.60
2022-11-29T09:45:55.275Z,31.00
2022-11-29T09:50:21.726Z,34.30
2022-11-29T09:54:39.487Z,31.30
2022-11-29T09:58:51.458Z,30.70
2022-11-29T10:03:03.066Z,31.70
2022-11-29T10:07:18.185Z,25.50
2022-11-29T10:11:31.799Z,28.00
2022-11-29T10:15:42.735Z,27.00
2022-11-29T10:19:54.286Z,36.40
2022-11-29T10:24:05.777Z,31.70
2022-11-29T10:28:17.676Z,29.30
2022-11-29T10:32:27.929Z,27.80
2022-11-29T10:36:41.314Z,29.90
2022-11-29T10:40:51.271Z,28.00
2022-11-29T10:44:59.696Z,31.80
2022-11-29T10:49:14.305Z,33.20
2022-11-29T10:53:24.585Z,31.90
2022-11-29T10:57:32.781Z,26.10
2022-11-29T11:01:42.819Z,30.20
2022-11-29T11:06:02.563Z,24.90
2022-11-29T11:10:22.837Z,29.60
2022-11-29T11:14:33.099Z,27.60
2022-11-29T11:18:41.180Z,25.90
2022-11-29T11:23:00.646Z,28.90
2022-11-29T11:27:08.041Z,29.40
2022-11-29T11:31:16.307Z,28.40
2022-11-29T11:35:26.986Z,28.20
2022-11-29T11:39:34.772Z,32.80
2022-11-29T11:43:42.692Z,34.00
2022-11-29T11:47:52.098Z,31.40
2022-11-29T11:51:59.957Z,27.60
2022-11-29T11:56:10.107Z,28.90
2022-11-29T12:05:17.558Z,33.10
2022-11-29T12:09:32.728Z,27.20
2022-11-29T12:13:44.898Z,24.50
2022-11-29T12:17:54.572Z,23.50
2022-11-29T12:22:08.305Z,26.00
2022-11-29T12:26:48.898Z,21.60
2022-11-29T12:30:56.721Z,23.10
2022-11-29T12:35:18.989Z,25.90
2022-11-29T12:39:39.260Z,25.20
2022-11-29T12:43:55.440Z,22.90
2022-11-29T12:48:10.523Z,23.10
2022-11-29T12:52:25.643Z,24.00
2022-11-29T12:56:38.494Z,22.80
2022-11-29T13:00:51.770Z,23.30
2022-11-29T13:05:03.687Z,23.30
2022-11-29T13:09:35.437Z,23.90
2022-11-29T13:13:44.925Z,23.70
2022-11-29T13:17:59.150Z,24.30
2022-11-29T13:22:11.048Z,28.60
2022-11-29T13:26:19.132Z,27.80
2022-11-29T13:30:26.889Z,28.50
2022-11-29T13:34:37.218Z,25.70
2022-11-29T13:38:47.389Z,26.50
2022-11-29T13:42:59.982Z,28.20
2022-11-29T13:47:12.516Z,27.40
2022-11-29T13:51:32.929Z,28.60
2022-11-29T13:55:48.131Z,33.80
2022-11-29T13:59:55.771Z,28.10
2022-11-29T14:04:12.479Z,26.00
2022-11-29T14:08:54.485Z,29.70
2022-11-29T14:13:02.141Z,25.60
2022-11-29T14:17:48.728Z,26.90
2022-11-29T14:22:31.981Z,27.20
2022-11-29T14:26:39.296Z,27.10
2022-11-29T14:30:55.440Z,25.70
2022-11-29T14:35:07.755Z,26.00
2022-11-29T14:39:31.867Z,27.40
2022-11-29T14:43:41.794Z,26.10
2022-11-29T14:47:52.048Z,34.50
2022-11-29T14:52:33.628Z,31.90
2022-11-29T14:56:44.533Z,32.40
2022-11-29T15:01:10.909Z,30.50
2022-11-29T15:05:21.650Z,32.30
2022-11-29T15:09:31.338Z,34.10
2022-11-29T15:13:47.766Z,31.60
2022-11-29T15:18:01.160Z,28.80
2022-11-29T15:22:15.803Z,28.70
2022-11-29T15:26:25.005Z,32.60
2022-11-29T15:30:35.715Z,29.70
2022-11-29T15:34:50.829Z,31.30
2022-11-29T15:39:01.896Z,30.40
2022-11-29T15:43:18.388Z,28.70
2022-11-29T15:47:28.086Z,30.80
2022-11-29T15:51:38.772Z,30.30
2022-11-29T15:55:49.860Z,28.90
2022-11-29T15:59:59.936Z,33.30
2022-11-29T16:04:08.790Z,33.40
2022-11-29T16:08:19.554Z,35.10
2022-11-29T16:12:27.484Z,38.10
2022-11-29T16:16:35.731Z,45.00
2022-11-29T16:20:45.615Z,38.90
2022-11-29T16:25:06.305Z,39.00
2022-11-29T16:29:24.772Z,36.40
2022-11-29T16:33:32.798Z,36.30
2022-11-29T16:37:43.961Z,35.30
2022-11-29T16:42:05.930Z,40.90
2022-11-29T16:46:34.853Z,43.90
2022-11-29T16:50:42.324Z,44.50
2022-11-29T16:54:50.569Z,42.90
2022-11-29T16:59:25.255Z,44.50
2022-11-29T17:03:30.251Z,40.20
2022-11-29T17:07:39.558Z,38.40
2022-11-29T17:11:47.632Z,35.50
2022-11-29T17:15:55.319Z,32.50
2022-11-29T17:20:02.670Z,35.40
2022-11-29T17:24:13.563Z,37.70
2022-11-29T17:28:20.877Z,35.30
2022-11-29T17:32:28.387Z,32.50
2022-11-29T17:36:36.264Z,32.50
2022-11-29T17:40:45.078Z,31.20
2022-11-29T17:44:54.609Z,37.50
2022-11-29T17:49:04.111Z,31.80
2022-11-29T17:53:11.739Z,31.70
2022-11-29T17:57:20.145Z,29.50
2022-11-29T18:01:47.477Z,35.50
2022-11-29T18:06:04.551Z,35.30
2022-11-29T18:10:13.134Z,35.40
2022-11-29T18:14:23.053Z,29.40
2022-11-29T18:18:30.441Z,28.50
2022-11-29T18:22:38.108Z,25.70
2022-11-29T18:26:46.058Z,32.60
2022-11-29T18:30:54.931Z,35.50
2022-11-29T18:35:05.004Z,32.50
2022-11-29T18:39:15.173Z,32.50
2022-11-29T18:43:22.597Z,37.30
2022-11-29T18:47:33.128Z,42.00
2022-11-29T18:51:42.477Z,48.50
2022-11-29T18:55:50.372Z,45.80
2022-11-29T18:59:57.787Z,33.10
2022-11-29T19:04:05.402Z,32.70
2022-11-29T19:08:13.311Z,32.80
2022-11-29T19:12:21.078Z,28.20
2022-11-29T19:16:31.175Z,24.90
2022-11-29T19:20:38.896Z,25.80
2022-11-29T19:24:47.210Z,25.80
2022-11-29T19:28:55.595Z,22.80
2022-11-29T19:33:03.255Z,25.50
2022-11-29T19:37:11.209Z,31.20
2022-11-29T19:41:20.616Z,28.40
2022-11-29T19:45:28.366Z,26.50
2022-11-29T19:49:46.134Z,28.60
2022-11-29T19:53:56.996Z,29.50
2022-11-29T19:58:04.582Z,27.10
2022-11-29T20:02:12.758Z,28.70
2022-11-29T20:06:21.031Z,27.60
2022-11-29T20:10:29.039Z,26.30
2022-11-29T20:14:36.875Z,34.00
2022-11-29T20:18:50.623Z,30.70
2022-11-29T20:22:58.842Z,29.00
2022-11-29T20:27:06.884Z,25.80
2022-11-29T20:31:16.825Z,28.00
2022-11-29T20:35:25.473Z,25.60
2022-11-29T20:39:42.095Z,24.40
2022-11-29T20:43:54.923Z,24.30
2022-11-29T20:48:09.741Z,23.20
2022-11-29T20:52:32.200Z,32.00
2022-11-29T20:56:39.655Z,36.90
2022-11-29T21:00:47.384Z,39.00
2022-11-29T21:04:56.492Z,43.90
2022-11-29T21:09:04.185Z,46.30
2022-11-29T21:13:14.228Z,46.70
2022-11-29T21:17:24.830Z,42.90
2022-11-29T21:21:39.388Z,48.70
2022-11-29T21:25:54.550Z,48.40
2022-11-29T21:30:05.572Z,53.30
2022-11-29T21:34:13.288Z,57.20
2022-11-29T21:38:23.661Z,57.50
2022-11-29T21:42:31.300Z,58.30
2022-11-29T21:46:39.368Z,53.70
2022-11-29T21:50:52.109Z,58.10
2022-11-29T21:54:59.964Z,53.30
2022-11-29T21:59:07.449Z,53.20
2022-11-29T22:03:15.376Z,52.40
2022-11-29T22:07:23.010Z,62.10
2022-11-29T22:11:34.548Z,61.50
2022-11-29T22:15:42.568Z,58.40
2022-11-29T22:19:50.805Z,56.10
2022-11-29T22:23:58.342Z,58.20
2022-11-29T22:28:05.932Z,59.10
2022-11-29T22:32:13.701Z,55.60
2022-11-29T22:36:21.626Z,64.90
2022-11-29T22:40:29.401Z,66.60
2022-11-29T22:44:37.516Z,75.80
2022-11-29T22:48:45.595Z,64.40
2022-11-29T22:52:52.724Z,61.10
2022-11-29T22:57:00.470Z,63.80
2022-11-29T23:01:12.310Z,56.10
2022-11-29T23:05:21.271Z,76.30
2022-11-29T23:09:28.400Z,70.60
2022-11-29T23:13:37.401Z,76.70
2022-11-29T23:17:45.453Z,69.60
2022-11-29T23:21:53.281Z,62.80
2022-11-29T23:26:01.259Z,68.40
2022-11-29T23:30:11.797Z,72.70
2022-11-29T23:34:19.935Z,77.90
2022-11-29T23:38:27.897Z,83.70
2022-11-29T23:42:35.568Z,80.80
2022-11-29T23:46:42.928Z,68.60
2022-11-29T23:50:51.088Z,69.30
2022-11-29T23:54:58.729Z,69.80
2022-11-29T23:59:07.136Z,68.80
